Share

Luqa, Malta

7:00 AM CEST on April 24, 2014 (GMT +0200)
Luqa (LMML) Elev 299 ft | 35.86 °N, 14.48 °E | Change Station

Current weather conditions updated 15 minutes ago

Partly Cloudy
Partly Cloudy
59 °F
Feels Like 59 °F
N
18
Wind Variable Wind from NW
Sunrise 6:18 AM
Sunset 7:42 PM
Moon Waning Crescent

Today is forecast to be Cooler than yesterday.

Pressure 29.98 in
Visibility 5.0 miles
Clouds Few 1000 ft
Dew Point 55 °F
Humidity 88%
Rainfall 0.00 in
Snow Depth Not available.
UV 0 out of 16
Pollen Not available.
Air Quality Not available.
Flu Activity Not available.
METAR LMML 240445Z 32016KT 8000 FEW010 15/13 Q1015 BECMG 9000

More Conditions Fewer Conditions

Pressure 29.98 in
Visibility 5.0 miles
Clouds Few 1000 ft
Dew Point 55 °F
Humidity 88%
Rainfall 0.00 in
Snow Depth Not available.
UV 0 out of 16
Pollen Not available.
Air Quality Not available.
Flu Activity Not available.
METAR LMML 240445Z 32016KT 8000 FEW010 15/13 Q1015 BECMG 9000

More Conditions Fewer Conditions

10-Day Weather Forecast

Almanac

Astronomy

Apr. 24, 2014 Rise Set
Actual Time 6:18 AM CEST 7:42 PM CEST
Civil Twilight 5:51 AM CEST 8:09 PM CEST
Nautical Twilight 5:19 AM CEST 8:42 PM CEST
Astronomical Twilight 4:45 AM CEST 9:15 PM CEST
Moon 3:07 AM CEST 2:48 PM CEST
Length of Visible Light 14h 18m
Length of Day
13h 24m
Tomorrow will be 2m 3s longer.
Waning Crescent, 29% of the Moon is Illuminated
Today
Waning Crescent
Apr 29
New
May 6
First Quarter
May 14
Full
May 21
Last Quarter

Yesterday's Extremes

Country Highs Country Lows

Community

  • Stacked
    Stacked
  • Balance
    Balance
  • Nestled In
    Nestled In
  • Stunning Sunrise
    Stunning Sunrise
  • spring flowers
    spring flowers

WunderPhotos

Upload Photos

1,704,563 photos uploaded!

WunderBlogs® & News

Nearby

Snow Depth

Not available.

Coastal Water Temperatures

Place Temperature
No Stations Reporting

Earthquake Activity

City Distance Mag. Time & Date
No recent earthquake activity has been reported nearby.
Minimum magnitude displayed is 2.5.

Nearby Weather Stations

Station Location Temp. Dew Point Humidity Wind Precip. Elev Updated Type
Bugibba, St Pauls Bay 62.8 °F 59 °F 87% NE  at  4.7 mph 0.00 in / hr 105 ft 7:00 AM CEST Rapid Fire
Victoria - Gozo Island Weather, Victoria 59.5 °F 57 °F 92% WNW  at  6.0 mph 0.00 in / hr 253 ft 7:00 AM CEST Rapid Fire
www.gozo.ws, Gozo Weather 58.3 °F 52 °F 80% WNW  at  13.0 mph 0.00 in / hr 358 ft 7:00 AM CEST Normal
Xambekk Victoria, Ghawdex, Malta 60.0 °F 57 °F 91% NW  at  8.0 mph 0.00 in / hr 190 ft 6:49 AM CEST Normal
Gharb, Gharb 58.5 °F 58 °F 98% North  at  15.4 mph 0.00 in / hr 390 ft 7:00 AM CEST Rapid Fire

Show More Stations Show Fewer Stations

What do you think?

We're not finished. Please let us know what you like, what you don't like, and what you are still missing.